createdAt,value
2023-02-23T00:00:03.033Z,24.33
2023-02-23T00:00:41.975Z,24.33
2023-02-23T00:01:22.727Z,24.35
2023-02-23T00:02:02.986Z,24.35
2023-02-23T00:02:42.425Z,24.33
2023-02-23T00:03:23.279Z,24.35
2023-02-23T00:04:03.796Z,24.34
2023-02-23T00:04:44.402Z,24.33
2023-02-23T00:05:29.548Z,24.36
2023-02-23T00:06:09.688Z,24.33
2023-02-23T00:06:50.261Z,24.31
2023-02-23T00:07:28.981Z,24.33
2023-02-23T00:08:08.125Z,24.32
2023-02-23T00:08:48.297Z,24.35
2023-02-23T00:09:27.767Z,24.35
2023-02-23T00:10:08.144Z,24.36
2023-02-23T00:10:48.827Z,24.39
2023-02-23T00:11:29.144Z,24.37
2023-02-23T00:12:11.204Z,24.35
2023-02-23T00:12:53.166Z,24.37
2023-02-23T00:13:32.657Z,24.38
2023-02-23T00:14:16.041Z,24.35
2023-02-23T00:14:56.615Z,24.34
2023-02-23T00:15:38.253Z,24.33
2023-02-23T00:16:19.451Z,24.35
2023-02-23T00:17:00.180Z,24.31
2023-02-23T00:17:40.870Z,24.34
2023-02-23T00:18:21.240Z,24.34
2023-02-23T00:19:01.100Z,24.34
2023-02-23T00:19:40.861Z,24.35
2023-02-23T00:20:21.378Z,24.35
2023-02-23T00:21:00.972Z,24.31
2023-02-23T00:21:42.306Z,24.32
2023-02-23T00:22:22.122Z,24.32
2023-02-23T00:23:02.640Z,24.34
2023-02-23T00:23:41.698Z,24.35
2023-02-23T00:24:21.470Z,24.35
2023-02-23T00:25:03.332Z,24.34
2023-02-23T00:25:43.816Z,24.33
2023-02-23T00:26:23.930Z,24.34
2023-02-23T00:27:04.089Z,24.36
2023-02-23T00:27:45.591Z,24.35
2023-02-23T00:28:26.219Z,24.35
2023-02-23T00:29:05.686Z,24.35
2023-02-23T00:29:45.088Z,24.33
2023-02-23T00:30:25.162Z,24.35
2023-02-23T00:31:05.475Z,24.36
2023-02-23T00:31:46.339Z,24.36
2023-02-23T00:32:26.956Z,24.35
2023-02-23T00:33:07.022Z,24.37
2023-02-23T00:33:47.132Z,24.37
2023-02-23T00:34:26.427Z,24.34
2023-02-23T00:35:06.536Z,24.34
2023-02-23T00:35:46.526Z,24.35
2023-02-23T00:36:26.800Z,24.34
2023-02-23T00:37:05.649Z,24.35
2023-02-23T00:37:45.585Z,24.35
2023-02-23T00:38:25.604Z,24.38
2023-02-23T00:39:07.081Z,24.36
2023-02-23T00:39:46.723Z,24.38
2023-02-23T00:40:27.626Z,24.36
2023-02-23T00:41:08.702Z,24.36
2023-02-23T00:41:47.989Z,24.38
2023-02-23T00:42:27.554Z,24.37
2023-02-23T00:43:08.166Z,24.31
2023-02-23T00:43:49.351Z,24.37
2023-02-23T00:44:29.719Z,24.35
2023-02-23T00:45:11.574Z,24.37
2023-02-23T00:45:52.539Z,24.34
2023-02-23T00:46:33.709Z,24.34
2023-02-23T00:47:13.717Z,24.35
2023-02-23T00:47:54.027Z,24.34
2023-02-23T00:48:35.430Z,24.37
2023-02-23T00:49:15.648Z,24.37
2023-02-23T00:49:55.274Z,24.37
2023-02-23T00:50:35.641Z,24.39
2023-02-23T00:51:15.837Z,24.37
2023-02-23T00:51:55.042Z,24.34
2023-02-23T00:52:34.401Z,24.34
2023-02-23T00:53:15.435Z,24.36
2023-02-23T00:53:55.662Z,24.35
2023-02-23T00:54:35.810Z,24.34
2023-02-23T00:55:16.855Z,24.34
2023-02-23T00:55:57.167Z,24.34
2023-02-23T00:56:37.764Z,24.35
2023-02-23T00:57:17.838Z,24.35
2023-02-23T00:57:57.382Z,24.34
2023-02-23T00:58:38.234Z,24.33
2023-02-23T00:59:19.298Z,24.36
2023-02-23T00:59:59.847Z,24.34
2023-02-23T01:00:42.317Z,24.36
2023-02-23T01:01:23.055Z,24.36
2023-02-23T01:02:04.683Z,24.35
2023-02-23T01:02:43.700Z,24.34
2023-02-23T01:03:23.109Z,24.33
2023-02-23T01:04:03.327Z,24.36
2023-02-23T01:04:42.505Z,24.35
2023-02-23T01:05:22.592Z,24.36
2023-02-23T01:06:01.766Z,24.37
2023-02-23T01:06:41.851Z,24.35
2023-02-23T01:07:21.248Z,24.33
2023-02-23T01:08:00.955Z,24.32
2023-02-23T01:08:40.094Z,24.33
2023-02-23T01:09:20.094Z,24.31
2023-02-23T01:09:59.202Z,24.35
2023-02-23T01:10:39.511Z,24.35
2023-02-23T01:11:20.227Z,24.34
2023-02-23T01:11:59.430Z,24.35
2023-02-23T01:12:38.799Z,24.36
2023-02-23T01:13:18.198Z,24.35
2023-02-23T01:13:57.654Z,24.35
2023-02-23T01:14:37.452Z,24.35
2023-02-23T01:15:18.217Z,24.36
2023-02-23T01:15:57.733Z,24.36
2023-02-23T01:16:37.643Z,24.33
2023-02-23T01:17:16.309Z,24.35
2023-02-23T01:17:55.620Z,24.35
2023-02-23T01:18:35.394Z,24.36
2023-02-23T01:19:15.811Z,24.36
2023-02-23T01:19:54.695Z,24.35
2023-02-23T01:20:36.253Z,24.36
2023-02-23T01:21:16.277Z,24.35
2023-02-23T01:21:56.341Z,24.35
2023-02-23T01:22:35.983Z,24.36
2023-02-23T01:23:16.474Z,24.36
2023-02-23T01:23:56.320Z,24.35
2023-02-23T01:24:37.443Z,24.36
2023-02-23T01:25:17.736Z,24.36
2023-02-23T01:25:57.933Z,24.36
2023-02-23T01:26:38.356Z,24.35
2023-02-23T01:27:18.232Z,24.35
2023-02-23T01:27:56.973Z,24.36
2023-02-23T01:28:36.620Z,24.35
2023-02-23T01:29:15.871Z,24.35
2023-02-23T01:29:56.372Z,24.36
2023-02-23T01:30:37.859Z,24.37
2023-02-23T01:31:18.568Z,24.34
2023-02-23T01:31:57.557Z,24.35
2023-02-23T01:32:38.739Z,24.32
2023-02-23T01:33:17.397Z,24.32
2023-02-23T01:33:57.571Z,24.34
2023-02-23T01:34:37.701Z,24.35
2023-02-23T01:35:19.216Z,24.33
2023-02-23T01:35:59.309Z,24.35
2023-02-23T01:36:40.110Z,24.34
2023-02-23T01:37:20.841Z,24.34
2023-02-23T01:38:01.472Z,24.35
2023-02-23T01:38:41.942Z,24.34
2023-02-23T01:39:21.485Z,24.35
2023-02-23T01:40:02.524Z,24.37
2023-02-23T01:40:42.470Z,24.29
2023-02-23T01:41:23.302Z,24.30
2023-02-23T01:42:03.737Z,24.32
2023-02-23T01:42:43.490Z,24.34
2023-02-23T01:43:23.613Z,24.35
2023-02-23T01:44:04.173Z,24.36
2023-02-23T01:44:44.060Z,24.37
2023-02-23T01:45:24.980Z,24.36
2023-02-23T01:46:06.290Z,24.36
2023-02-23T01:46:46.631Z,24.36
2023-02-23T01:47:30.220Z,24.36
2023-02-23T01:48:12.612Z,24.35
2023-02-23T01:48:52.379Z,24.33
2023-02-23T01:49:31.161Z,24.35
2023-02-23T01:50:10.894Z,24.35
2023-02-23T01:50:50.794Z,24.35
2023-02-23T01:51:30.549Z,24.35
2023-02-23T01:52:10.368Z,24.35
2023-02-23T01:52:50.016Z,24.37
2023-02-23T01:53:29.587Z,24.32
2023-02-23T01:54:09.666Z,24.36
2023-02-23T01:54:48.700Z,24.34
2023-02-23T01:55:28.329Z,24.34
2023-02-23T01:56:08.238Z,24.35
2023-02-23T01:56:47.957Z,24.35
2023-02-23T01:57:27.248Z,24.36
2023-02-23T01:58:06.813Z,24.36
2023-02-23T01:58:47.001Z,24.37
2023-02-23T01:59:26.925Z,24.37
2023-02-23T02:00:07.245Z,24.35
2023-02-23T02:00:47.576Z,24.33
2023-02-23T02:01:28.038Z,24.33
2023-02-23T02:02:09.563Z,24.35
2023-02-23T02:02:49.584Z,24.35
2023-02-23T02:03:30.066Z,24.37
2023-02-23T02:04:10.389Z,24.37
2023-02-23T02:04:51.332Z,24.37
2023-02-23T02:05:29.887Z,24.38
2023-02-23T02:06:09.751Z,24.37
2023-02-23T02:06:49.514Z,24.38
2023-02-23T02:07:31.149Z,24.34
2023-02-23T02:08:10.969Z,24.34
2023-02-23T02:08:51.279Z,24.35
2023-02-23T02:09:30.982Z,24.38
2023-02-23T02:10:12.120Z,24.37
2023-02-23T02:10:50.932Z,24.40
2023-02-23T02:11:30.285Z,24.36
2023-02-23T02:12:10.013Z,24.37
2023-02-23T02:12:51.421Z,24.33
2023-02-23T02:13:31.421Z,24.34
2023-02-23T02:14:12.415Z,24.32
2023-02-23T02:14:52.238Z,24.35
2023-02-23T02:15:32.332Z,24.33
2023-02-23T02:16:11.243Z,24.34
2023-02-23T02:16:51.141Z,24.35
2023-02-23T02:17:31.290Z,24.36
2023-02-23T02:18:12.621Z,24.34
2023-02-23T02:18:51.745Z,24.34
2023-02-23T02:19:32.316Z,24.36
2023-02-23T02:20:12.604Z,24.37
2023-02-23T02:20:52.607Z,24.34
2023-02-23T02:21:31.308Z,24.32
2023-02-23T02:22:11.028Z,24.34
2023-02-23T02:22:51.436Z,24.35
2023-02-23T02:23:32.462Z,24.34
2023-02-23T02:24:12.076Z,24.36
2023-02-23T02:24:52.141Z,24.36
2023-02-23T02:25:31.474Z,24.39
2023-02-23T02:26:12.597Z,24.40
2023-02-23T02:26:50.720Z,24.36
2023-02-23T02:27:29.677Z,24.35
2023-02-23T02:28:10.058Z,24.37
2023-02-23T02:28:49.746Z,24.35
2023-02-23T02:29:29.179Z,24.36
2023-02-23T02:30:10.576Z,24.37
2023-02-23T02:30:50.758Z,24.40
2023-02-23T02:31:31.553Z,24.41
2023-02-23T02:32:11.043Z,24.39
2023-02-23T02:32:50.441Z,24.38
2023-02-23T02:33:31.833Z,24.39
2023-02-23T02:34:11.494Z,24.39
2023-02-23T02:34:51.635Z,24.38
2023-02-23T02:35:31.892Z,24.39
2023-02-23T02:36:12.115Z,24.38
2023-02-23T02:36:52.618Z,24.39
2023-02-23T02:37:32.851Z,24.40
2023-02-23T02:38:12.417Z,24.40
2023-02-23T02:38:53.332Z,24.38
2023-02-23T02:39:34.402Z,24.37
2023-02-23T02:40:14.232Z,24.38
2023-02-23T02:40:54.150Z,24.37
2023-02-23T02:41:34.793Z,24.38
2023-02-23T02:42:15.095Z,24.38
2023-02-23T02:42:54.861Z,24.38
2023-02-23T02:43:35.267Z,24.39
2023-02-23T02:44:16.030Z,24.38
2023-02-23T02:44:57.065Z,24.37
2023-02-23T02:45:38.456Z,24.38
2023-02-23T02:46:19.588Z,24.38
2023-02-23T02:46:59.983Z,24.38
2023-02-23T02:47:41.584Z,24.40
2023-02-23T02:48:20.333Z,24.39
2023-02-23T02:48:59.550Z,24.39
2023-02-23T02:49:40.132Z,24.39
2023-02-23T02:50:21.219Z,24.38
2023-02-23T02:51:01.014Z,24.37
2023-02-23T02:51:41.415Z,24.36
2023-02-23T02:52:21.091Z,24.36
2023-02-23T02:53:01.983Z,24.34
2023-02-23T02:53:43.738Z,24.34
2023-02-23T02:54:24.228Z,24.36
2023-02-23T02:55:04.680Z,24.38
2023-02-23T02:55:45.438Z,24.39
2023-02-23T02:56:25.847Z,24.39
2023-02-23T02:57:06.106Z,24.37
2023-02-23T02:57:47.545Z,24.36
2023-02-23T02:58:27.854Z,24.35
2023-02-23T02:59:07.896Z,24.39
2023-02-23T02:59:48.357Z,24.39
2023-02-23T03:00:28.228Z,24.39
2023-02-23T03:01:07.680Z,24.37
2023-02-23T03:01:47.570Z,24.36
2023-02-23T03:02:27.362Z,24.38
2023-02-23T03:03:06.695Z,24.38
2023-02-23T03:03:46.427Z,24.39
2023-02-23T03:04:25.017Z,24.37
2023-02-23T03:05:04.024Z,24.39
2023-02-23T03:05:43.948Z,24.39
2023-02-23T03:06:23.566Z,24.39
2023-02-23T03:07:04.603Z,24.38
2023-02-23T03:07:44.826Z,24.40
2023-02-23T03:08:25.522Z,24.39
2023-02-23T03:09:07.052Z,24.40
2023-02-23T03:09:47.435Z,24.39
2023-02-23T03:10:26.753Z,24.39
2023-02-23T03:11:06.117Z,24.40
2023-02-23T03:11:46.314Z,24.39
2023-02-23T03:12:26.426Z,24.40
2023-02-23T03:13:06.544Z,24.40
2023-02-23T03:13:45.775Z,24.41
2023-02-23T03:14:26.010Z,24.41
2023-02-23T03:15:08.620Z,24.37
2023-02-23T03:15:47.191Z,24.37
2023-02-23T03:16:27.829Z,24.39
2023-02-23T03:17:08.851Z,24.36
2023-02-23T03:17:49.545Z,24.39
2023-02-23T03:18:30.535Z,24.36
2023-02-23T03:19:10.744Z,24.37
2023-02-23T03:19:50.931Z,24.37
2023-02-23T03:20:31.359Z,24.37
2023-02-23T03:21:10.625Z,24.37
2023-02-23T03:21:50.955Z,24.34
2023-02-23T03:22:31.562Z,24.36
2023-02-23T03:23:12.681Z,24.37
2023-02-23T03:23:52.994Z,24.38
2023-02-23T03:24:33.291Z,24.35
2023-02-23T03:25:14.492Z,24.37
2023-02-23T03:25:54.378Z,24.32
2023-02-23T03:26:34.258Z,24.37
2023-02-23T03:27:14.812Z,24.36
2023-02-23T03:27:54.783Z,24.38
2023-02-23T03:28:35.420Z,24.38
2023-02-23T03:29:16.993Z,24.39
2023-02-23T03:29:58.369Z,24.39
2023-02-23T03:30:46.837Z,24.39
2023-02-23T03:31:26.034Z,24.37
2023-02-23T03:32:05.776Z,24.38
2023-02-23T03:32:45.482Z,24.39
2023-02-23T03:33:24.873Z,24.39
2023-02-23T03:34:04.525Z,24.40
2023-02-23T03:34:43.541Z,24.40
2023-02-23T03:35:22.724Z,24.38
2023-02-23T03:36:03.062Z,24.34
2023-02-23T03:36:42.755Z,24.38
2023-02-23T03:37:23.399Z,24.35
2023-02-23T03:38:03.827Z,24.35
2023-02-23T03:38:44.150Z,24.38
2023-02-23T03:39:23.621Z,24.36
2023-02-23T03:40:03.153Z,24.34
2023-02-23T03:40:43.132Z,24.39
2023-02-23T03:41:24.008Z,24.35
2023-02-23T03:42:04.022Z,24.34
2023-02-23T03:42:44.581Z,24.38
2023-02-23T03:43:24.374Z,24.39
2023-02-23T03:44:03.926Z,24.38
2023-02-23T03:44:43.083Z,24.36
2023-02-23T03:45:23.743Z,24.38
2023-02-23T03:46:03.263Z,24.37
2023-02-23T03:46:43.946Z,24.39
2023-02-23T03:47:25.094Z,24.39
2023-02-23T03:48:05.452Z,24.40
2023-02-23T03:48:46.527Z,24.39
2023-02-23T03:49:26.527Z,24.37
2023-02-23T03:50:05.919Z,24.39
2023-02-23T03:50:45.897Z,24.41
2023-02-23T03:51:26.174Z,24.41
2023-02-23T03:52:06.640Z,24.40
2023-02-23T03:52:47.816Z,24.39
2023-02-23T03:53:29.127Z,24.37
2023-02-23T03:54:10.632Z,24.38
2023-02-23T03:54:50.125Z,24.40
2023-02-23T03:55:29.795Z,24.39
2023-02-23T03:56:10.939Z,24.39
2023-02-23T03:56:52.396Z,24.40
2023-02-23T03:57:34.019Z,24.40
2023-02-23T03:58:15.257Z,24.40
2023-02-23T03:58:55.138Z,24.40
2023-02-23T03:59:35.170Z,24.41
2023-02-23T04:00:15.072Z,24.41
2023-02-23T04:00:55.443Z,24.42
2023-02-23T04:01:35.518Z,24.41
2023-02-23T04:02:15.660Z,24.39
2023-02-23T04:02:56.146Z,24.40
2023-02-23T04:03:37.756Z,24.39
2023-02-23T04:04:18.271Z,24.41
2023-02-23T04:04:59.406Z,24.40
2023-02-23T04:05:38.784Z,24.40
2023-02-23T04:06:17.989Z,24.40
2023-02-23T04:06:57.959Z,24.41
2023-02-23T04:07:37.137Z,24.40
2023-02-23T04:08:17.614Z,24.36
2023-02-23T04:08:57.348Z,24.35
2023-02-23T04:09:37.161Z,24.36
2023-02-23T04:10:16.970Z,24.39
2023-02-23T04:10:55.654Z,24.40
2023-02-23T04:11:35.938Z,24.40
2023-02-23T04:12:17.090Z,24.39
2023-02-23T04:12:57.063Z,24.37
2023-02-23T04:13:37.192Z,24.40
2023-02-23T04:14:18.620Z,24.39
2023-02-23T04:14:59.678Z,24.38
2023-02-23T04:15:49.063Z,24.36
2023-02-23T04:16:28.358Z,24.36
2023-02-23T04:17:07.804Z,24.38
2023-02-23T04:17:47.856Z,24.38
2023-02-23T04:18:27.527Z,24.38
2023-02-23T04:19:08.065Z,24.39
2023-02-23T04:19:48.267Z,24.39
2023-02-23T04:20:29.581Z,24.38
2023-02-23T04:21:09.542Z,24.37
2023-02-23T04:21:49.778Z,24.38
2023-02-23T04:22:29.069Z,24.39
2023-02-23T04:23:09.082Z,24.38
2023-02-23T04:23:49.671Z,24.36
2023-02-23T04:24:30.071Z,24.39
2023-02-23T04:25:10.750Z,24.38
2023-02-23T04:25:51.626Z,24.38
2023-02-23T04:26:32.122Z,24.40
2023-02-23T04:27:11.948Z,24.38
2023-02-23T04:27:51.407Z,24.37
2023-02-23T04:28:30.587Z,24.40
2023-02-23T04:29:10.098Z,24.36
2023-02-23T04:29:48.892Z,24.37
2023-02-23T04:30:29.596Z,24.36
2023-02-23T04:31:10.584Z,24.34
2023-02-23T04:31:50.355Z,24.36
2023-02-23T04:32:29.684Z,24.36
2023-02-23T04:33:09.051Z,24.38
2023-02-23T04:33:48.583Z,24.37
2023-02-23T04:34:30.297Z,24.35
2023-02-23T04:35:10.472Z,24.35
2023-02-23T04:35:50.828Z,24.36
2023-02-23T04:36:31.284Z,24.34
2023-02-23T04:37:11.232Z,24.35
2023-02-23T04:37:49.856Z,24.34
2023-02-23T04:38:29.369Z,24.35
2023-02-23T04:39:08.960Z,24.37
2023-02-23T04:39:49.895Z,24.37
2023-02-23T04:40:30.015Z,24.34
2023-02-23T04:41:10.232Z,24.36
2023-02-23T04:41:51.661Z,24.39
2023-02-23T04:42:32.757Z,24.37
2023-02-23T04:43:11.999Z,24.37
2023-02-23T04:43:51.202Z,24.36
2023-02-23T04:44:31.200Z,24.39
2023-02-23T04:45:11.794Z,24.38
2023-02-23T04:45:52.746Z,24.38
2023-02-23T04:46:32.334Z,24.38
2023-02-23T04:47:12.179Z,24.37
2023-02-23T04:47:51.842Z,24.34
2023-02-23T04:48:30.805Z,24.36
2023-02-23T04:49:10.257Z,24.36
2023-02-23T04:49:51.500Z,24.34
2023-02-23T04:50:32.557Z,24.34
2023-02-23T04:51:11.193Z,24.36
2023-02-23T04:51:51.074Z,24.33
2023-02-23T04:52:31.578Z,24.35
2023-02-23T04:53:11.687Z,24.32
2023-02-23T04:53:51.856Z,24.34
2023-02-23T04:54:31.884Z,24.35
2023-02-23T04:55:11.426Z,24.32
2023-02-23T04:55:51.166Z,24.30
2023-02-23T04:56:31.757Z,24.33
2023-02-23T04:57:11.641Z,24.32
2023-02-23T04:57:51.855Z,24.34
2023-02-23T04:58:32.216Z,24.37
2023-02-23T04:59:13.323Z,24.39
2023-02-23T04:59:53.530Z,24.37
2023-02-23T05:00:36.100Z,24.38
2023-02-23T05:01:16.522Z,24.38
2023-02-23T05:01:56.474Z,24.37
2023-02-23T05:02:36.635Z,24.36
2023-02-23T05:03:16.737Z,24.38
2023-02-23T05:03:56.775Z,24.36
2023-02-23T05:04:36.896Z,24.34
2023-02-23T05:05:16.521Z,24.35
2023-02-23T05:05:55.303Z,24.36
2023-02-23T05:06:34.715Z,24.36
2023-02-23T05:07:15.896Z,24.35
2023-02-23T05:07:55.236Z,24.36
2023-02-23T05:08:35.105Z,24.37
2023-02-23T05:09:14.906Z,24.38
2023-02-23T05:09:56.166Z,24.38
2023-02-23T05:10:35.429Z,24.37
2023-02-23T05:11:14.743Z,24.38
2023-02-23T05:11:53.948Z,24.38
2023-02-23T05:12:34.059Z,24.36
2023-02-23T05:13:14.095Z,24.35
2023-02-23T05:13:54.120Z,24.37
2023-02-23T05:14:34.884Z,24.37
2023-02-23T05:15:15.379Z,24.37
2023-02-23T05:15:55.959Z,24.33
2023-02-23T05:16:34.739Z,24.32
2023-02-23T05:17:14.777Z,24.33
2023-02-23T05:17:54.495Z,24.34
2023-02-23T05:18:34.781Z,24.34
2023-02-23T05:19:14.540Z,24.35
2023-02-23T05:19:57.413Z,24.33
2023-02-23T05:20:39.134Z,24.34
2023-02-23T05:21:19.291Z,24.31
2023-02-23T05:21:59.201Z,24.33
2023-02-23T05:22:38.123Z,24.34
2023-02-23T05:23:19.665Z,24.35
2023-02-23T05:23:59.560Z,24.36
2023-02-23T05:24:39.698Z,24.36
2023-02-23T05:25:18.941Z,24.36
2023-02-23T05:25:59.144Z,24.38
2023-02-23T05:26:39.340Z,24.38
2023-02-23T05:27:19.878Z,24.39
2023-02-23T05:27:59.669Z,24.39
2023-02-23T05:28:39.772Z,24.37
2023-02-23T05:29:20.161Z,24.37
2023-02-23T05:30:00.443Z,24.37
2023-02-23T05:30:40.344Z,24.37
2023-02-23T05:31:21.283Z,24.38
2023-02-23T05:32:00.912Z,24.35
2023-02-23T05:32:40.689Z,24.36
2023-02-23T05:33:23.002Z,24.34
2023-02-23T05:34:02.597Z,24.36
2023-02-23T05:34:43.003Z,24.36
2023-02-23T05:35:22.995Z,24.37
2023-02-23T05:36:03.256Z,24.37
2023-02-23T05:36:42.727Z,24.38
2023-02-23T05:37:22.443Z,24.35
2023-02-23T05:38:02.980Z,24.33
2023-02-23T05:38:41.933Z,24.33
2023-02-23T05:39:21.059Z,24.34
2023-02-23T05:40:01.319Z,24.34
2023-02-23T05:40:41.645Z,24.34
2023-02-23T05:41:22.302Z,24.34
2023-02-23T05:42:02.135Z,24.34
2023-02-23T05:42:42.865Z,24.33
2023-02-23T05:43:23.030Z,24.30
2023-02-23T05:44:02.402Z,24.33
2023-02-23T05:44:42.038Z,24.32
2023-02-23T05:45:21.675Z,24.30
2023-02-23T05:46:01.349Z,24.32
2023-02-23T05:46:41.030Z,24.34
2023-02-23T05:47:21.156Z,24.33
2023-02-23T05:48:01.525Z,24.34
2023-02-23T05:48:41.201Z,24.35
2023-02-23T05:49:21.061Z,24.37
2023-02-23T05:50:02.270Z,24.35
2023-02-23T05:50:42.461Z,24.36
2023-02-23T05:51:23.922Z,24.35
2023-02-23T05:52:03.612Z,24.33
2023-02-23T05:52:43.183Z,24.33
2023-02-23T05:53:23.115Z,24.33
2023-02-23T05:54:01.821Z,24.33
2023-02-23T05:54:40.910Z,24.34
2023-02-23T05:55:21.245Z,24.35
2023-02-23T05:56:00.399Z,24.32
2023-02-23T05:56:40.940Z,24.33
2023-02-23T05:57:22.184Z,24.33
2023-02-23T05:58:02.311Z,24.31
2023-02-23T05:58:42.145Z,24.34
2023-02-23T05:59:21.791Z,24.35
2023-02-23T06:00:01.507Z,24.32
2023-02-23T06:00:42.735Z,24.35
2023-02-23T06:01:23.118Z,24.33
2023-02-23T06:02:02.639Z,24.32
2023-02-23T06:02:43.904Z,24.32
2023-02-23T06:03:23.484Z,24.32
2023-02-23T06:04:06.094Z,24.31
2023-02-23T06:04:43.389Z,24.31
2023-02-23T06:05:23.004Z,24.33
2023-02-23T06:06:03.093Z,24.30
2023-02-23T06:06:44.581Z,24.32
2023-02-23T06:07:24.475Z,24.32
2023-02-23T06:08:04.603Z,24.31
2023-02-23T06:08:44.244Z,24.33
2023-02-23T06:09:24.367Z,24.32
2023-02-23T06:10:02.695Z,24.31
2023-02-23T06:10:42.170Z,24.33
2023-02-23T06:11:21.864Z,24.32
2023-02-23T06:12:01.967Z,24.32
2023-02-23T06:12:42.719Z,24.32
2023-02-23T06:13:22.892Z,24.33
2023-02-23T06:14:02.898Z,24.32
2023-02-23T06:14:42.717Z,24.32
2023-02-23T06:15:21.784Z,24.30
2023-02-23T06:16:01.599Z,24.30
2023-02-23T06:16:42.874Z,24.29
2023-02-23T06:17:23.748Z,24.29
2023-02-23T06:18:04.995Z,24.29
2023-02-23T06:18:45.300Z,24.31
2023-02-23T06:19:25.773Z,24.31
2023-02-23T06:20:07.154Z,24.31
2023-02-23T06:20:47.094Z,24.32
2023-02-23T06:21:26.313Z,24.32
2023-02-23T06:22:04.893Z,24.35
2023-02-23T06:22:45.063Z,24.33
2023-02-23T06:23:24.628Z,24.32
2023-02-23T06:24:05.957Z,24.31
2023-02-23T06:24:45.910Z,24.29
2023-02-23T06:25:25.765Z,24.31
2023-02-23T06:26:05.083Z,24.32
2023-02-23T06:26:44.559Z,24.32
2023-02-23T06:27:24.827Z,24.31
2023-02-23T06:28:04.487Z,24.33
2023-02-23T06:28:45.342Z,24.32
2023-02-23T06:29:25.272Z,24.34
2023-02-23T06:30:08.182Z,24.31
2023-02-23T06:30:47.313Z,24.32
2023-02-23T06:31:26.051Z,24.35
2023-02-23T06:32:05.574Z,24.34
2023-02-23T06:32:46.411Z,24.35
2023-02-23T06:33:26.672Z,24.34
2023-02-23T06:34:06.577Z,24.35
2023-02-23T06:34:47.126Z,24.32
2023-02-23T06:35:26.767Z,24.34
2023-02-23T06:36:06.942Z,24.32
2023-02-23T06:36:46.114Z,24.32
2023-02-23T06:37:26.101Z,24.28
2023-02-23T06:38:06.893Z,24.30
2023-02-23T06:38:48.247Z,24.30
2023-02-23T06:39:28.422Z,24.31
2023-02-23T06:40:08.488Z,24.33
2023-02-23T06:40:49.991Z,24.31
2023-02-23T06:41:30.764Z,24.32
2023-02-23T06:42:09.589Z,24.31
2023-02-23T06:42:49.117Z,24.32
2023-02-23T06:43:29.288Z,24.33
2023-02-23T06:44:05.518Z,24.35
2023-02-23T06:44:40.976Z,24.34
2023-02-23T06:45:22.520Z,24.32
2023-02-23T06:46:04.151Z,24.31
2023-02-23T06:46:44.360Z,24.32
2023-02-23T06:47:23.178Z,24.34
2023-02-23T06:48:02.427Z,24.32
2023-02-23T06:48:42.651Z,24.33
2023-02-23T06:49:23.990Z,24.34
2023-02-23T06:50:03.940Z,24.33
2023-02-23T06:50:43.414Z,24.33
2023-02-23T06:51:22.963Z,24.35
2023-02-23T06:52:02.748Z,24.35
2023-02-23T06:52:43.802Z,24.33
2023-02-23T06:53:23.933Z,24.35
2023-02-23T06:54:04.258Z,24.33
2023-02-23T06:54:44.310Z,24.35
2023-02-23T06:55:25.280Z,24.34
2023-02-23T06:56:05.554Z,24.34
2023-02-23T06:56:46.431Z,24.32
2023-02-23T06:57:27.166Z,24.30
2023-02-23T06:58:06.882Z,24.32
2023-02-23T06:58:46.619Z,24.34
2023-02-23T06:59:25.244Z,24.34
2023-02-23T07:00:06.579Z,24.31
2023-02-23T07:00:45.800Z,24.31
2023-02-23T07:01:25.842Z,24.31
2023-02-23T07:02:05.568Z,24.31
2023-02-23T07:02:45.342Z,24.32
2023-02-23T07:03:24.786Z,24.33
2023-02-23T07:04:04.613Z,24.32
2023-02-23T07:04:44.835Z,24.33
2023-02-23T07:05:25.136Z,24.33
2023-02-23T07:06:06.092Z,24.35
2023-02-23T07:06:46.910Z,24.34
2023-02-23T07:07:25.424Z,24.33
2023-02-23T07:08:04.847Z,24.33
2023-02-23T07:08:45.891Z,24.32
2023-02-23T07:09:25.474Z,24.30
2023-02-23T07:10:05.053Z,24.30
2023-02-23T07:10:45.283Z,24.32
2023-02-23T07:11:25.200Z,24.33
2023-02-23T07:12:04.728Z,24.34
2023-02-23T07:12:43.878Z,24.31
2023-02-23T07:13:23.639Z,24.32
2023-02-23T07:14:06.460Z,24.35
2023-02-23T07:14:46.231Z,24.32
2023-02-23T07:15:27.569Z,24.33
2023-02-23T07:16:07.927Z,24.33
2023-02-23T07:16:48.003Z,24.34
2023-02-23T07:17:27.514Z,24.33
2023-02-23T07:18:07.112Z,24.33
2023-02-23T07:18:46.268Z,24.34
2023-02-23T07:19:25.827Z,24.35
2023-02-23T07:20:05.539Z,24.35
2023-02-23T07:20:45.663Z,24.35
2023-02-23T07:21:25.570Z,24.32
2023-02-23T07:22:05.212Z,24.34
2023-02-23T07:22:44.966Z,24.32
2023-02-23T07:23:24.622Z,24.32
2023-02-23T07:24:05.348Z,24.34
2023-02-23T07:24:45.979Z,24.34
2023-02-23T07:25:26.595Z,24.33
2023-02-23T07:26:06.438Z,24.31
2023-02-23T07:26:46.782Z,24.31
2023-02-23T07:27:26.153Z,24.31
2023-02-23T07:28:05.331Z,24.32
2023-02-23T07:28:45.403Z,24.33
2023-02-23T07:29:25.745Z,24.32
2023-02-23T07:30:08.004Z,24.33
2023-02-23T07:30:48.454Z,24.31
2023-02-23T07:31:29.089Z,24.33
2023-02-23T07:32:09.942Z,24.33
2023-02-23T07:32:49.382Z,24.33
2023-02-23T07:33:28.576Z,24.33
2023-02-23T07:34:10.007Z,24.35
2023-02-23T07:34:49.653Z,24.31
2023-02-23T07:35:29.134Z,24.32
2023-02-23T07:36:09.841Z,24.31
2023-02-23T07:36:49.472Z,24.30
2023-02-23T07:37:29.647Z,24.31
2023-02-23T07:38:08.620Z,24.32
2023-02-23T07:38:47.599Z,24.33
2023-02-23T07:39:27.776Z,24.31
2023-02-23T07:40:07.214Z,24.33
2023-02-23T07:40:47.144Z,24.33
2023-02-23T07:41:27.334Z,24.31
2023-02-23T07:42:07.403Z,24.31
2023-02-23T07:42:46.531Z,24.31
2023-02-23T07:43:25.137Z,24.31
2023-02-23T07:44:05.077Z,24.33
2023-02-23T07:44:45.532Z,24.33
2023-02-23T07:45:27.037Z,24.34
2023-02-23T07:46:09.962Z,24.35
2023-02-23T07:46:49.726Z,24.33
2023-02-23T07:47:30.351Z,24.35
2023-02-23T07:48:10.448Z,24.32
2023-02-23T07:48:50.459Z,24.31
2023-02-23T07:49:29.842Z,24.33
2023-02-23T07:50:10.596Z,24.34
2023-02-23T07:50:52.035Z,24.31
2023-02-23T07:51:32.056Z,24.30
2023-02-23T07:52:13.521Z,24.31
2023-02-23T07:52:54.366Z,24.33
2023-02-23T07:53:34.564Z,24.32
2023-02-23T07:54:14.989Z,24.30
2023-02-23T07:54:54.049Z,24.29
2023-02-23T07:55:34.204Z,24.28
2023-02-23T07:56:14.617Z,24.27
2023-02-23T07:56:55.870Z,24.31
2023-02-23T07:57:35.073Z,24.29
2023-02-23T07:58:13.939Z,24.32
2023-02-23T07:58:55.842Z,24.34
2023-02-23T07:59:35.817Z,24.35
2023-02-23T08:00:15.246Z,24.34
2023-02-23T08:00:54.883Z,24.33
2023-02-23T08:01:35.268Z,24.33
2023-02-23T08:02:14.875Z,24.34
2023-02-23T08:02:54.067Z,24.33
2023-02-23T08:03:33.716Z,24.31
2023-02-23T08:04:15.327Z,24.32
2023-02-23T08:04:56.440Z,24.31
2023-02-23T08:05:37.741Z,24.33
2023-02-23T08:06:18.762Z,24.34
2023-02-23T08:06:59.266Z,24.35
2023-02-23T08:07:40.596Z,24.33
2023-02-23T08:08:20.922Z,24.30
2023-02-23T08:09:01.274Z,24.31
2023-02-23T08:09:42.837Z,24.32
2023-02-23T08:10:24.078Z,24.31
2023-02-23T08:11:05.215Z,24.31
2023-02-23T08:11:45.500Z,24.30
2023-02-23T08:12:26.086Z,24.31
2023-02-23T08:13:05.859Z,24.31
2023-02-23T08:13:44.438Z,24.28
2023-02-23T08:14:23.840Z,24.28
2023-02-23T08:15:06.727Z,24.30
2023-02-23T08:15:46.279Z,24.32
2023-02-23T08:16:26.350Z,24.30
2023-02-23T08:17:06.407Z,24.30
2023-02-23T08:17:46.383Z,24.33
2023-02-23T08:18:25.076Z,24.32
2023-02-23T08:19:05.399Z,24.32
2023-02-23T08:19:45.851Z,24.29
2023-02-23T08:20:27.245Z,24.29
2023-02-23T08:21:06.839Z,24.28
2023-02-23T08:21:46.243Z,24.29
2023-02-23T08:22:27.160Z,24.29
2023-02-23T08:23:06.701Z,24.29
2023-02-23T08:23:45.624Z,24.30
2023-02-23T08:24:24.878Z,24.29
2023-02-23T08:25:05.161Z,24.29
2023-02-23T08:25:44.599Z,24.28
2023-02-23T08:26:24.902Z,24.29
2023-02-23T08:27:04.667Z,24.28
2023-02-23T08:27:46.027Z,24.30
2023-02-23T08:28:25.662Z,24.32
2023-02-23T08:29:04.862Z,24.30
2023-02-23T08:29:44.390Z,24.28
2023-02-23T08:30:22.659Z,24.30
2023-02-23T08:31:02.603Z,24.27
2023-02-23T08:31:42.826Z,24.28
2023-02-23T08:32:22.185Z,24.30
2023-02-23T08:33:02.408Z,24.33
2023-02-23T08:33:43.912Z,24.32
2023-02-23T08:34:24.435Z,24.32
2023-02-23T08:35:03.765Z,24.33
2023-02-23T08:35:43.913Z,24.31
2023-02-23T08:36:25.455Z,24.32
2023-02-23T08:37:05.733Z,24.29